createdAt,value
2022-11-22T00:00:02.134Z,0.00
2022-11-22T00:01:02.616Z,0.00
2022-11-22T00:02:02.645Z,0.00
2022-11-22T00:03:02.823Z,0.00
2022-11-22T00:04:02.564Z,0.00
2022-11-22T00:05:02.481Z,0.00
2022-11-22T00:06:02.731Z,0.00
2022-11-22T00:07:02.534Z,0.00
2022-11-22T00:08:02.984Z,0.00
2022-11-22T00:09:02.937Z,0.00
2022-11-22T00:10:02.662Z,0.00
2022-11-22T00:11:02.737Z,0.00
2022-11-22T00:12:02.975Z,0.00
2022-11-22T00:13:02.915Z,0.00
2022-11-22T00:14:02.857Z,0.00
2022-11-22T00:15:03.057Z,0.00
2022-11-22T00:16:02.575Z,0.00
2022-11-22T00:17:02.670Z,0.00
2022-11-22T00:18:02.215Z,0.00
2022-11-22T00:19:02.342Z,0.00
2022-11-22T00:20:02.310Z,0.00
2022-11-22T00:21:02.629Z,0.00
2022-11-22T00:22:02.659Z,0.00
2022-11-22T00:23:03.063Z,0.00
2022-11-22T00:24:03.012Z,0.00
2022-11-22T00:25:02.552Z,0.00
2022-11-22T00:26:02.870Z,0.00
2022-11-22T00:27:03.255Z,0.00
2022-11-22T00:28:03.016Z,0.00
2022-11-22T00:29:02.938Z,0.00
2022-11-22T00:30:03.314Z,0.00
2022-11-22T00:31:02.726Z,0.00
2022-11-22T00:32:02.822Z,0.00
2022-11-22T00:33:02.212Z,0.00
2022-11-22T00:34:02.416Z,0.00
2022-11-22T00:35:02.785Z,0.00
2022-11-22T00:36:02.793Z,0.00
2022-11-22T00:37:02.431Z,0.00
2022-11-22T00:38:02.874Z,0.00
2022-11-22T00:39:02.569Z,0.00
2022-11-22T00:40:02.622Z,0.00
2022-11-22T00:41:02.305Z,0.00
2022-11-22T00:42:03.379Z,0.00
2022-11-22T00:43:02.850Z,0.00
2022-11-22T00:44:02.998Z,0.00
2022-11-22T00:45:03.097Z,0.00
2022-11-22T00:46:02.853Z,0.00
2022-11-22T00:47:02.407Z,0.00
2022-11-22T00:48:02.860Z,0.00
2022-11-22T00:49:02.451Z,0.00
2022-11-22T00:50:02.844Z,0.00
2022-11-22T00:51:02.904Z,0.00
2022-11-22T00:52:01.900Z,0.00
2022-11-22T00:53:02.256Z,0.00
2022-11-22T00:54:02.220Z,0.00
2022-11-22T00:55:01.905Z,0.00
2022-11-22T00:56:02.334Z,0.00
2022-11-22T00:57:02.378Z,0.00
2022-11-22T00:58:02.883Z,0.00
2022-11-22T00:59:02.804Z,0.00
2022-11-22T01:00:02.271Z,0.00
2022-11-22T01:01:02.856Z,0.00
2022-11-22T01:02:02.244Z,0.00
2022-11-22T01:03:02.732Z,0.00
2022-11-22T01:04:02.469Z,0.00
2022-11-22T01:05:02.762Z,0.00
2022-11-22T01:06:02.338Z,0.00
2022-11-22T01:07:03.327Z,0.00
2022-11-22T01:08:03.247Z,0.00
2022-11-22T01:09:02.637Z,0.00
2022-11-22T01:10:03.283Z,0.00
2022-11-22T01:11:03.149Z,0.00
2022-11-22T01:12:03.248Z,0.00
2022-11-22T01:13:03.016Z,0.00
2022-11-22T01:14:03.382Z,0.00
2022-11-22T01:15:02.743Z,0.00
2022-11-22T01:16:03.118Z,0.00
2022-11-22T01:17:02.851Z,0.00
2022-11-22T01:18:02.389Z,0.00
2022-11-22T01:19:02.807Z,0.00
2022-11-22T01:20:02.872Z,0.00
2022-11-22T01:21:02.562Z,0.00
2022-11-22T01:22:02.923Z,0.00
2022-11-22T01:23:03.289Z,0.00
2022-11-22T01:24:03.337Z,0.00
2022-11-22T01:25:03.034Z,0.00
2022-11-22T01:26:02.854Z,0.00
2022-11-22T01:27:02.292Z,0.00
2022-11-22T01:28:02.722Z,0.00
2022-11-22T01:29:02.215Z,0.00
2022-11-22T01:30:02.129Z,0.00
2022-11-22T01:31:02.351Z,0.00
2022-11-22T01:32:02.637Z,0.00
2022-11-22T01:33:02.563Z,0.00
2022-11-22T01:34:03.032Z,0.00
2022-11-22T01:35:02.708Z,0.00
2022-11-22T01:36:02.450Z,0.00
2022-11-22T01:37:02.815Z,0.00
2022-11-22T01:38:02.839Z,0.00
2022-11-22T01:39:03.201Z,0.00
2022-11-22T01:40:03.234Z,0.00
2022-11-22T01:41:02.815Z,0.00
2022-11-22T01:42:03.086Z,0.00
2022-11-22T01:43:03.604Z,0.00
2022-11-22T01:44:03.268Z,0.00
2022-11-22T01:45:03.618Z,0.00
2022-11-22T01:46:03.069Z,0.00
2022-11-22T01:47:02.371Z,0.00
2022-11-22T01:48:02.684Z,0.00
2022-11-22T01:49:02.324Z,0.00
2022-11-22T01:50:02.700Z,0.00
2022-11-22T01:51:02.396Z,0.00
2022-11-22T01:52:03.143Z,0.00
2022-11-22T01:53:03.132Z,0.00
2022-11-22T01:54:02.659Z,0.00
2022-11-22T01:55:02.795Z,0.00
2022-11-22T01:56:02.535Z,0.00
2022-11-22T01:57:02.778Z,0.00
2022-11-22T01:58:02.952Z,0.00
2022-11-22T01:59:03.291Z,0.00
2022-11-22T02:00:02.662Z,0.00
2022-11-22T02:01:03.093Z,0.00
2022-11-22T02:02:01.931Z,0.00
2022-11-22T02:03:01.637Z,0.00
2022-11-22T02:04:02.041Z,0.00
2022-11-22T02:05:01.751Z,0.00
2022-11-22T02:06:02.018Z,0.00
2022-11-22T02:07:02.328Z,0.00
2022-11-22T02:08:01.852Z,0.00
2022-11-22T02:09:02.233Z,0.00
2022-11-22T02:10:01.814Z,0.00
2022-11-22T02:11:01.934Z,0.00
2022-11-22T02:12:02.399Z,0.00
2022-11-22T02:13:02.069Z,0.00
2022-11-22T02:14:02.617Z,0.00
2022-11-22T02:15:02.112Z,0.00
2022-11-22T02:16:02.421Z,0.00
2022-11-22T02:17:01.794Z,0.00
2022-11-22T02:18:01.482Z,0.00
2022-11-22T02:19:02.087Z,0.00
2022-11-22T02:20:01.550Z,0.00
2022-11-22T02:21:01.926Z,0.00
2022-11-22T02:22:01.999Z,0.00
2022-11-22T02:23:02.370Z,0.00
2022-11-22T02:24:02.017Z,0.00
2022-11-22T02:25:02.295Z,0.00
2022-11-22T02:26:01.908Z,0.00
2022-11-22T02:27:02.291Z,0.00
2022-11-22T02:28:01.947Z,0.00
2022-11-22T02:29:02.293Z,0.00
2022-11-22T02:30:02.374Z,0.00
2022-11-22T02:31:01.938Z,0.00
2022-11-22T02:32:02.197Z,0.00
2022-11-22T02:33:02.023Z,0.00
2022-11-22T02:34:02.051Z,0.00
2022-11-22T02:35:02.251Z,0.00
2022-11-22T02:36:01.706Z,0.00
2022-11-22T02:37:02.121Z,0.00
2022-11-22T02:38:01.834Z,0.00
2022-11-22T02:39:02.204Z,0.00
2022-11-22T02:40:01.754Z,0.00
2022-11-22T02:41:02.074Z,0.00
2022-11-22T02:42:02.349Z,0.00
2022-11-22T02:43:02.064Z,0.00
2022-11-22T02:44:02.532Z,0.00
2022-11-22T02:45:02.270Z,0.00
2022-11-22T02:46:01.992Z,0.00
2022-11-22T02:47:01.967Z,0.00
2022-11-22T02:48:01.572Z,0.00
2022-11-22T02:49:01.963Z,0.00
2022-11-22T02:50:01.655Z,0.00
2022-11-22T02:51:01.985Z,0.00
2022-11-22T02:52:02.660Z,0.00
2022-11-22T02:53:02.364Z,0.00
2022-11-22T02:54:02.637Z,0.00
2022-11-22T02:55:02.227Z,0.00
2022-11-22T02:56:02.233Z,0.00
2022-11-22T02:57:01.955Z,0.00
2022-11-22T02:58:01.864Z,0.00
2022-11-22T02:59:02.081Z,0.00
2022-11-22T03:00:02.363Z,0.00
2022-11-22T03:01:02.032Z,0.00
2022-11-22T03:02:03.599Z,0.00
2022-11-22T03:03:02.561Z,0.00
2022-11-22T03:04:03.022Z,0.00
2022-11-22T03:05:03.008Z,0.00
2022-11-22T03:06:03.098Z,0.00
2022-11-22T03:07:03.278Z,0.00
2022-11-22T03:08:02.877Z,0.00
2022-11-22T03:09:03.242Z,0.00
2022-11-22T03:10:03.220Z,0.00
2022-11-22T03:11:02.800Z,0.00
2022-11-22T03:12:03.477Z,0.00
2022-11-22T03:13:03.102Z,0.00
2022-11-22T03:14:03.344Z,0.00
2022-11-22T03:15:03.605Z,0.00
2022-11-22T03:16:03.268Z,0.00
2022-11-22T03:17:02.848Z,0.00
2022-11-22T03:18:03.157Z,0.00
2022-11-22T03:19:02.972Z,0.00
2022-11-22T03:20:03.067Z,0.00
2022-11-22T03:21:03.405Z,0.00
2022-11-22T03:22:03.356Z,0.00
2022-11-22T03:23:02.891Z,0.00
2022-11-22T03:24:03.264Z,0.00
2022-11-22T03:25:02.911Z,0.00
2022-11-22T03:26:03.345Z,0.00
2022-11-22T03:27:02.766Z,0.00
2022-11-22T03:28:02.345Z,0.00
2022-11-22T03:29:02.195Z,0.00
2022-11-22T03:30:02.615Z,0.00
2022-11-22T03:31:02.269Z,0.00
2022-11-22T03:32:02.929Z,0.00
2022-11-22T03:33:02.646Z,0.00
2022-11-22T03:34:02.997Z,0.00
2022-11-22T03:35:02.691Z,0.00
2022-11-22T03:36:02.986Z,0.00
2022-11-22T03:37:03.329Z,0.00
2022-11-22T03:38:02.752Z,0.00
2022-11-22T03:39:03.097Z,0.00
2022-11-22T03:40:02.717Z,0.00
2022-11-22T03:41:03.066Z,0.00
2022-11-22T03:42:03.074Z,0.00
2022-11-22T03:43:02.879Z,0.00
2022-11-22T03:44:03.037Z,0.00
2022-11-22T03:45:02.715Z,0.00
2022-11-22T03:46:03.109Z,0.00
2022-11-22T03:47:02.822Z,0.00
2022-11-22T03:48:03.099Z,0.00
2022-11-22T03:49:03.465Z,0.00
2022-11-22T03:50:02.800Z,0.00
2022-11-22T03:51:03.220Z,0.00
2022-11-22T03:52:03.551Z,0.00
2022-11-22T03:53:02.936Z,0.00
2022-11-22T03:54:03.266Z,0.00
2022-11-22T03:55:03.418Z,0.00
2022-11-22T03:56:02.944Z,0.00
2022-11-22T03:57:02.940Z,0.00
2022-11-22T03:58:02.919Z,0.00
2022-11-22T03:59:02.921Z,0.00
2022-11-22T04:00:02.288Z,0.00
2022-11-22T04:01:02.777Z,0.00
2022-11-22T04:02:02.893Z,0.00
2022-11-22T04:03:02.475Z,0.00
2022-11-22T04:04:02.798Z,0.00
2022-11-22T04:05:02.757Z,0.00
2022-11-22T04:06:02.469Z,0.00
2022-11-22T04:07:02.505Z,0.00
2022-11-22T04:08:02.824Z,0.00
2022-11-22T04:09:02.998Z,0.00
2022-11-22T04:10:03.058Z,0.00
2022-11-22T04:11:02.468Z,0.00
2022-11-22T04:12:02.867Z,0.00
2022-11-22T04:13:03.322Z,0.00
2022-11-22T04:14:03.394Z,0.00
2022-11-22T04:15:02.895Z,0.00
2022-11-22T04:16:03.061Z,0.00
2022-11-22T04:17:02.824Z,0.00
2022-11-22T04:18:02.355Z,0.00
2022-11-22T04:19:02.779Z,0.00
2022-11-22T04:20:02.627Z,0.00
2022-11-22T04:21:02.774Z,0.00
2022-11-22T04:22:02.915Z,0.00
2022-11-22T04:23:02.800Z,0.00
2022-11-22T04:24:02.651Z,0.00
2022-11-22T04:25:02.897Z,0.00
2022-11-22T04:26:02.468Z,0.00
2022-11-22T04:27:02.974Z,0.00
2022-11-22T04:28:02.689Z,0.00
2022-11-22T04:29:09.589Z,0.00
2022-11-22T04:30:02.579Z,0.00
2022-11-22T04:31:03.103Z,0.00
2022-11-22T04:32:02.538Z,0.00
2022-11-22T04:33:02.432Z,0.00
2022-11-22T04:34:02.172Z,0.00
2022-11-22T04:35:02.213Z,0.00
2022-11-22T04:36:02.518Z,0.00
2022-11-22T04:37:02.887Z,0.00
2022-11-22T04:38:02.465Z,0.00
2022-11-22T04:39:02.785Z,0.00
2022-11-22T04:40:02.684Z,0.00
2022-11-22T04:41:02.834Z,0.00
2022-11-22T04:42:03.282Z,0.00
2022-11-22T04:43:02.961Z,0.00
2022-11-22T04:44:02.882Z,0.00
2022-11-22T04:45:03.135Z,0.00
2022-11-22T04:46:02.906Z,0.00
2022-11-22T04:47:02.397Z,0.00
2022-11-22T04:48:02.048Z,0.00
2022-11-22T04:49:02.249Z,0.00
2022-11-22T04:50:02.557Z,0.00
2022-11-22T04:51:02.713Z,0.00
2022-11-22T04:52:02.057Z,0.00
2022-11-22T04:53:02.245Z,0.00
2022-11-22T04:54:02.201Z,0.00
2022-11-22T04:55:02.271Z,0.00
2022-11-22T04:56:02.677Z,0.00
2022-11-22T04:57:03.053Z,0.00
2022-11-22T04:58:03.085Z,0.00
2022-11-22T04:59:02.937Z,0.00
2022-11-22T05:00:03.094Z,0.00
2022-11-22T05:01:02.795Z,0.00
2022-11-22T05:02:02.456Z,0.00
2022-11-22T05:03:02.534Z,0.00
2022-11-22T05:04:02.463Z,0.00
2022-11-22T05:05:02.194Z,0.00
2022-11-22T05:06:02.554Z,0.00
2022-11-22T05:07:03.105Z,0.00
2022-11-22T05:08:03.322Z,0.00
2022-11-22T05:09:03.329Z,0.00
2022-11-22T05:10:02.738Z,0.00
2022-11-22T05:11:02.855Z,0.00
2022-11-22T05:12:02.328Z,0.00
2022-11-22T05:13:02.635Z,0.00
2022-11-22T05:14:02.684Z,0.00
2022-11-22T05:15:02.034Z,0.00
2022-11-22T05:16:02.285Z,0.00
2022-11-22T05:17:02.417Z,0.00
2022-11-22T05:18:02.273Z,0.00
2022-11-22T05:19:02.416Z,0.00
2022-11-22T05:20:02.375Z,0.00
2022-11-22T05:21:02.639Z,0.00
2022-11-22T05:22:03.054Z,0.00
2022-11-22T05:23:02.916Z,0.00
2022-11-22T05:24:02.704Z,0.00
2022-11-22T05:25:03.278Z,0.00
2022-11-22T05:26:03.056Z,0.00
2022-11-22T05:27:02.427Z,0.00
2022-11-22T05:28:02.410Z,0.00
2022-11-22T05:29:02.228Z,0.00
2022-11-22T05:30:02.192Z,0.00
2022-11-22T05:31:02.574Z,0.00
2022-11-22T05:32:02.833Z,0.00
2022-11-22T05:33:02.680Z,0.00
2022-11-22T05:34:02.508Z,0.00
2022-11-22T05:35:02.596Z,0.00
2022-11-22T05:36:02.912Z,0.00
2022-11-22T05:37:02.219Z,0.00
2022-11-22T05:38:02.322Z,0.00
2022-11-22T05:39:02.209Z,0.00
2022-11-22T05:40:02.232Z,0.00
2022-11-22T05:41:01.846Z,0.00
2022-11-22T05:42:02.717Z,0.00
2022-11-22T05:43:02.555Z,0.00
2022-11-22T05:44:02.177Z,0.00
2022-11-22T05:45:02.780Z,0.00
2022-11-22T05:46:02.483Z,0.00
2022-11-22T05:47:02.710Z,0.00
2022-11-22T05:48:03.012Z,0.00
2022-11-22T05:49:02.705Z,0.00
2022-11-22T05:50:02.642Z,0.00
2022-11-22T05:51:02.962Z,0.00
2022-11-22T05:52:02.557Z,0.00
2022-11-22T05:53:02.977Z,0.00
2022-11-22T05:54:02.622Z,0.00
2022-11-22T05:55:02.550Z,0.00
2022-11-22T05:56:02.943Z,0.00
2022-11-22T05:57:02.466Z,0.00
2022-11-22T05:58:02.457Z,0.00
2022-11-22T05:59:01.841Z,0.00
2022-11-22T06:00:02.188Z,0.00
2022-11-22T06:01:02.237Z,0.00
2022-11-22T06:02:02.748Z,0.00
2022-11-22T06:03:02.431Z,0.00
2022-11-22T06:04:02.729Z,0.00
2022-11-22T06:05:02.341Z,0.00
2022-11-22T06:06:02.615Z,0.00
2022-11-22T06:07:06.791Z,0.00
2022-11-22T06:08:01.668Z,0.00
2022-11-22T06:09:01.885Z,0.00
2022-11-22T06:10:01.618Z,0.00
2022-11-22T06:11:01.736Z,0.00
2022-11-22T06:12:01.539Z,0.00
2022-11-22T06:13:01.718Z,0.00
2022-11-22T06:14:02.096Z,0.00
2022-11-22T06:15:01.621Z,0.00
2022-11-22T06:16:02.349Z,0.00
2022-11-22T06:17:02.320Z,0.00
2022-11-22T06:18:02.092Z,0.00
2022-11-22T06:19:02.496Z,0.00
2022-11-22T06:20:06.225Z,0.00
2022-11-22T06:21:02.116Z,0.00
2022-11-22T06:22:02.006Z,0.00
2022-11-22T06:23:02.030Z,0.00
2022-11-22T06:24:02.561Z,4.00
2022-11-22T06:25:01.980Z,4.00
2022-11-22T06:26:02.350Z,4.00
2022-11-22T06:27:02.368Z,4.00
2022-11-22T06:28:02.286Z,4.00
2022-11-22T06:29:02.893Z,8.00
2022-11-22T06:30:02.461Z,4.00
2022-11-22T06:31:02.604Z,4.00
2022-11-22T06:32:04.233Z,8.00
2022-11-22T06:33:02.008Z,12.00
2022-11-22T06:34:01.897Z,12.00
2022-11-22T06:35:01.536Z,12.00
2022-11-22T06:36:01.932Z,16.00
2022-11-22T06:37:01.928Z,20.00
2022-11-22T06:38:02.361Z,20.00
2022-11-22T06:39:02.108Z,24.00
2022-11-22T06:40:02.051Z,32.00
2022-11-22T06:41:02.284Z,32.00
2022-11-22T06:42:02.167Z,40.00
2022-11-22T06:43:01.929Z,48.00
2022-11-22T06:44:02.371Z,52.00
2022-11-22T06:45:02.253Z,60.00
2022-11-22T06:46:01.934Z,68.00
2022-11-22T06:47:01.590Z,80.00
2022-11-22T06:48:02.058Z,84.00
2022-11-22T06:49:01.649Z,96.00
2022-11-22T06:50:01.753Z,108.00
2022-11-22T06:51:01.570Z,116.00
2022-11-22T06:52:02.496Z,128.00
2022-11-22T06:53:02.041Z,140.00
2022-11-22T06:54:02.004Z,152.00
2022-11-22T06:55:07.705Z,160.00
2022-11-22T06:56:01.976Z,160.00
2022-11-22T06:57:01.488Z,172.00
2022-11-22T06:58:01.795Z,180.00
2022-11-22T06:59:01.877Z,192.00
2022-11-22T07:00:01.913Z,196.00
2022-11-22T07:01:01.648Z,212.00
2022-11-22T07:02:06.372Z,232.00
2022-11-22T07:03:02.751Z,248.00
2022-11-22T07:04:02.544Z,268.00
2022-11-22T07:05:24.480Z,280.00
2022-11-22T07:06:02.864Z,288.00
2022-11-22T07:07:02.201Z,304.00
2022-11-22T07:08:08.012Z,324.00
2022-11-22T07:09:02.379Z,348.00
2022-11-22T07:10:02.101Z,376.00
2022-11-22T07:11:02.406Z,416.00
2022-11-22T07:12:02.257Z,448.00
2022-11-22T07:13:02.108Z,488.00
2022-11-22T07:14:07.557Z,524.00
2022-11-22T07:15:01.862Z,540.00
2022-11-22T07:16:02.235Z,552.00
2022-11-22T07:17:02.553Z,584.00
2022-11-22T07:18:02.537Z,612.00
2022-11-22T07:19:02.622Z,644.00
2022-11-22T07:20:02.299Z,676.00
2022-11-22T07:21:04.784Z,716.00
2022-11-22T07:22:01.991Z,756.00
2022-11-22T07:23:02.489Z,800.00
2022-11-22T07:24:02.204Z,848.00
2022-11-22T07:25:02.172Z,888.00
2022-11-22T07:26:01.939Z,928.00
2022-11-22T07:27:02.551Z,972.00
2022-11-22T07:28:02.587Z,1012.00
2022-11-22T07:29:02.959Z,1052.00
2022-11-22T07:30:02.432Z,1088.00
2022-11-22T07:31:02.990Z,1124.00
2022-11-22T07:32:02.516Z,1168.00
2022-11-22T07:33:02.375Z,1220.00
2022-11-22T07:34:02.906Z,1272.00
2022-11-22T07:35:02.672Z,1308.00
2022-11-22T07:36:02.423Z,1352.00
2022-11-22T07:37:07.559Z,1408.00
2022-11-22T07:38:02.391Z,1452.00
2022-11-22T07:39:01.830Z,1488.00
2022-11-22T07:40:02.268Z,1516.00
2022-11-22T07:41:02.266Z,1552.00
2022-11-22T07:42:02.275Z,1592.00
2022-11-22T07:43:02.167Z,1624.00
2022-11-22T07:44:02.450Z,1652.00
2022-11-22T07:45:02.447Z,1720.00
2022-11-22T07:46:02.041Z,1788.00
2022-11-22T07:47:02.645Z,1852.00
2022-11-22T07:48:02.691Z,1920.00
2022-11-22T07:49:02.695Z,1988.00
2022-11-22T07:50:02.472Z,2064.00
2022-11-22T07:51:02.748Z,2084.00
2022-11-22T07:52:01.881Z,2088.00
2022-11-22T07:53:02.095Z,2068.00
2022-11-22T07:54:02.347Z,2088.00
2022-11-22T07:55:01.893Z,2128.00
2022-11-22T07:56:01.911Z,2116.00
2022-11-22T07:57:02.632Z,2056.00
2022-11-22T07:58:02.496Z,2052.00
2022-11-22T07:59:01.998Z,2096.00
2022-11-22T08:00:02.527Z,2144.00
2022-11-22T08:01:02.433Z,2188.00
2022-11-22T08:02:02.825Z,2196.00
2022-11-22T08:03:02.772Z,2172.00
2022-11-22T08:04:02.880Z,2212.00
2022-11-22T08:05:02.839Z,2264.00
2022-11-22T08:06:02.870Z,2316.00
2022-11-22T08:07:02.833Z,2356.00
2022-11-22T08:08:02.588Z,2348.00
2022-11-22T08:09:02.752Z,2348.00
2022-11-22T08:10:02.628Z,2324.00
2022-11-22T08:11:02.581Z,2284.00
2022-11-22T08:12:02.946Z,2256.00
2022-11-22T08:13:03.033Z,2280.00
2022-11-22T08:14:02.929Z,2256.00
2022-11-22T08:15:03.187Z,2212.00
2022-11-22T08:16:05.467Z,2176.00
2022-11-22T08:17:02.951Z,2176.00
2022-11-22T08:18:03.563Z,2164.00
2022-11-22T08:19:03.128Z,2144.00
2022-11-22T08:20:03.009Z,2172.00
2022-11-22T08:21:03.251Z,2244.00
2022-11-22T08:22:02.924Z,2288.00
2022-11-22T08:23:02.571Z,2332.00
2022-11-22T08:24:03.197Z,2380.00
2022-11-22T08:25:02.531Z,2424.00
2022-11-22T08:26:02.822Z,2432.00
2022-11-22T08:27:03.260Z,2440.00
2022-11-22T08:28:03.373Z,2488.00
2022-11-22T08:29:03.310Z,2500.00
2022-11-22T08:30:03.230Z,2484.00
2022-11-22T08:31:03.239Z,2552.00
2022-11-22T08:32:03.518Z,2588.00
2022-11-22T08:33:03.470Z,2572.00
2022-11-22T08:34:03.384Z,2612.00
2022-11-22T08:35:03.279Z,2660.00
2022-11-22T08:36:03.156Z,2696.00
2022-11-22T08:37:02.674Z,2724.00
2022-11-22T08:38:02.960Z,2740.00
2022-11-22T08:39:02.759Z,2736.00
2022-11-22T08:40:02.624Z,2752.00
2022-11-22T08:41:02.384Z,2712.00
2022-11-22T08:42:02.611Z,2740.00
2022-11-22T08:43:03.052Z,2784.00
2022-11-22T08:44:03.151Z,2852.00
2022-11-22T08:45:02.901Z,2852.00
2022-11-22T08:46:02.774Z,2852.00
2022-11-22T08:47:03.334Z,2876.00
2022-11-22T08:48:03.658Z,2908.00
2022-11-22T08:49:03.396Z,2988.00
2022-11-22T08:50:03.225Z,3136.00
2022-11-22T08:51:03.105Z,3216.00
2022-11-22T08:52:03.342Z,3392.00
2022-11-22T08:53:03.293Z,3604.00
2022-11-22T08:54:03.519Z,3836.00
2022-11-22T08:55:03.180Z,3992.00
2022-11-22T08:56:03.270Z,4148.00
2022-11-22T08:57:02.689Z,4376.00
2022-11-22T08:58:02.611Z,4708.00
2022-11-22T08:59:03.229Z,5080.00
2022-11-22T09:00:03.117Z,5396.00
2022-11-22T09:01:02.660Z,5752.00
2022-11-22T09:02:03.163Z,6036.00
2022-11-22T09:03:02.711Z,6304.00
2022-11-22T09:04:03.041Z,6884.00
2022-11-22T09:05:02.659Z,9028.00
2022-11-22T09:08:36.084Z,13440.00
2022-11-22T09:09:22.589Z,6920.00
2022-11-22T09:10:02.728Z,5604.00
2022-11-22T09:11:02.656Z,5900.00
2022-11-22T09:12:02.977Z,6856.00
2022-11-22T09:13:02.710Z,7340.00
2022-11-22T09:14:02.994Z,7452.00
2022-11-22T09:15:02.797Z,7504.00
2022-11-22T09:16:02.864Z,10896.00
2022-11-22T09:17:02.549Z,14848.00
2022-11-22T09:18:02.064Z,10288.00
2022-11-22T09:19:02.346Z,15552.00
2022-11-22T09:20:02.714Z,14976.00
2022-11-22T09:21:01.968Z,16896.00
2022-11-22T09:22:02.878Z,13472.00
2022-11-22T09:23:03.117Z,12544.00
2022-11-22T09:24:03.169Z,11336.00
2022-11-22T09:25:02.836Z,11484.00
2022-11-22T09:26:02.642Z,10468.00
2022-11-22T09:27:02.537Z,10924.00
2022-11-22T09:28:02.112Z,10648.00
2022-11-22T09:29:02.512Z,11148.00
2022-11-22T09:30:02.119Z,9924.00
2022-11-22T09:31:02.093Z,10324.00
2022-11-22T09:32:02.706Z,10652.00
2022-11-22T09:33:02.373Z,9720.00
2022-11-22T09:34:02.041Z,10956.00
2022-11-22T09:35:02.115Z,10132.00
2022-11-22T09:36:02.703Z,9776.00
2022-11-22T09:37:03.404Z,9444.00
2022-11-22T09:38:02.807Z,11156.00
2022-11-22T09:39:03.307Z,11060.00
2022-11-22T09:40:03.285Z,10768.00
2022-11-22T09:41:02.838Z,10652.00
2022-11-22T09:42:02.166Z,11044.00
2022-11-22T09:43:02.302Z,11044.00
2022-11-22T09:44:02.317Z,11100.00
2022-11-22T09:45:02.654Z,11152.00
2022-11-22T09:46:02.689Z,11140.00
2022-11-22T09:47:03.030Z,11112.00
2022-11-22T09:48:08.198Z,11132.00
2022-11-22T09:49:02.991Z,11212.00
2022-11-22T09:50:02.399Z,11488.00
2022-11-22T09:51:02.363Z,12012.00
2022-11-22T09:52:03.159Z,12188.00
2022-11-22T09:53:02.736Z,12112.00
2022-11-22T09:54:02.997Z,7740.00
2022-11-22T09:55:02.841Z,9556.00
2022-11-22T09:56:02.926Z,5048.00
2022-11-22T09:57:02.728Z,4560.00
2022-11-22T09:58:02.898Z,4840.00
2022-11-22T09:59:03.008Z,6000.00
2022-11-22T10:00:02.950Z,6948.00
2022-11-22T10:01:02.776Z,7212.00
2022-11-22T10:02:16.855Z,7288.00
2022-11-22T10:03:02.078Z,7432.00
2022-11-22T10:04:01.893Z,7652.00
2022-11-22T10:05:02.424Z,6604.00
2022-11-22T10:06:01.820Z,6840.00
2022-11-22T10:07:02.443Z,6892.00
2022-11-22T10:08:03.104Z,6048.00
2022-11-22T10:09:02.854Z,6404.00
2022-11-22T10:10:02.724Z,6544.00
2022-11-22T10:11:02.961Z,5908.00
2022-11-22T10:12:02.099Z,6168.00
2022-11-22T10:13:02.022Z,6404.00
2022-11-22T10:14:02.782Z,6264.00
2022-11-22T10:15:02.185Z,5312.00
2022-11-22T10:16:02.571Z,4580.00
2022-11-22T10:17:02.612Z,4664.00
2022-11-22T10:18:02.513Z,5224.00
2022-11-22T10:19:02.498Z,5012.00
2022-11-22T10:20:02.577Z,4968.00
2022-11-22T10:21:02.566Z,5080.00
2022-11-22T10:22:01.937Z,5472.00
2022-11-22T10:23:01.935Z,5812.00
2022-11-22T10:24:02.439Z,6452.00
2022-11-22T10:25:02.077Z,6872.00
2022-11-22T10:26:01.892Z,6924.00
2022-11-22T10:27:02.746Z,6884.00
2022-11-22T10:28:02.523Z,7236.00
2022-11-22T10:29:02.405Z,8020.00
2022-11-22T10:30:02.570Z,8996.00
2022-11-22T10:31:02.431Z,8524.00
2022-11-22T10:32:03.055Z,9844.00
2022-11-22T10:33:03.074Z,11408.00
2022-11-22T10:34:03.077Z,13124.00
2022-11-22T10:35:03.057Z,12772.00
2022-11-22T10:36:02.430Z,11352.00
2022-11-22T10:37:01.933Z,9680.00
2022-11-22T10:38:01.818Z,8180.00
2022-11-22T10:39:01.729Z,7424.00
2022-11-22T10:40:02.450Z,6468.00
2022-11-22T10:41:02.162Z,6092.00
2022-11-22T10:42:02.274Z,6396.00
2022-11-22T10:43:02.248Z,6744.00
2022-11-22T10:44:02.694Z,7488.00
2022-11-22T10:45:02.648Z,7840.00
2022-11-22T10:46:02.102Z,8008.00
2022-11-22T10:47:02.307Z,8692.00
2022-11-22T10:48:02.647Z,9936.00
2022-11-22T10:49:02.066Z,10876.00
2022-11-22T10:50:02.610Z,11872.00
2022-11-22T10:51:02.316Z,13056.00
2022-11-22T10:52:02.281Z,14184.00
2022-11-22T10:53:02.054Z,13512.00
2022-11-22T10:54:03.839Z,12080.00
2022-11-22T10:55:01.842Z,11824.00
2022-11-22T10:56:02.388Z,10300.00
2022-11-22T10:57:02.464Z,9668.00
2022-11-22T10:58:02.320Z,10104.00
2022-11-22T10:59:02.917Z,10192.00
2022-11-22T11:00:02.297Z,11316.00
2022-11-22T11:01:02.876Z,12576.00
2022-11-22T11:02:03.044Z,11724.00
2022-11-22T11:03:02.881Z,10964.00
2022-11-22T11:04:02.791Z,10308.00
2022-11-22T11:05:03.011Z,10040.00
2022-11-22T11:07:18.454Z,11104.00
2022-11-22T11:08:22.100Z,10792.00
2022-11-22T11:09:54.809Z,10064.00
2022-11-22T11:10:12.356Z,8676.00
2022-11-22T11:11:03.346Z,7476.00
2022-11-22T11:12:02.459Z,6972.00
2022-11-22T11:13:02.045Z,7460.00
2022-11-22T11:14:02.439Z,7060.00
2022-11-22T11:15:02.589Z,9444.00
2022-11-22T11:16:02.468Z,10656.00
2022-11-22T11:17:03.022Z,9116.00
2022-11-22T11:18:02.792Z,8856.00
2022-11-22T11:19:02.730Z,8880.00
2022-11-22T11:20:03.285Z,8716.00
2022-11-22T11:21:03.200Z,9132.00
2022-11-22T11:22:02.495Z,7664.00
2022-11-22T11:23:17.894Z,6936.00
2022-11-22T11:24:02.245Z,6888.00
2022-11-22T11:25:02.324Z,8784.00
2022-11-22T11:26:02.364Z,7876.00
2022-11-22T11:27:03.155Z,10836.00
2022-11-22T11:28:03.159Z,17504.00
2022-11-22T11:29:02.963Z,14624.00
2022-11-22T11:30:03.127Z,13848.00
2022-11-22T11:31:03.350Z,15168.00
2022-11-22T11:32:02.442Z,17824.00
2022-11-22T11:33:02.119Z,13644.00
2022-11-22T11:34:02.405Z,14272.00
2022-11-22T11:35:02.586Z,8436.00
2022-11-22T11:36:02.234Z,8196.00
2022-11-22T11:37:03.088Z,8120.00
2022-11-22T11:38:02.757Z,7440.00
2022-11-22T11:39:02.903Z,6896.00
2022-11-22T11:40:02.897Z,7116.00
2022-11-22T11:41:03.166Z,7536.00
2022-11-22T11:42:03.168Z,7464.00
2022-11-22T11:43:02.743Z,7012.00
2022-11-22T11:44:03.451Z,6736.00
2022-11-22T11:45:03.650Z,6660.00
2022-11-22T11:46:03.229Z,6272.00
2022-11-22T11:47:02.913Z,6252.00
2022-11-22T11:48:02.724Z,6184.00
2022-11-22T11:49:02.393Z,5676.00
2022-11-22T11:50:02.915Z,5340.00
2022-11-22T11:51:02.523Z,5924.00
2022-11-22T11:52:03.319Z,5724.00
2022-11-22T11:53:02.835Z,6452.00
2022-11-22T11:54:03.503Z,6536.00
2022-11-22T11:55:03.370Z,6292.00
2022-11-22T11:56:03.152Z,7164.00
2022-11-22T11:57:02.969Z,8244.00
2022-11-22T11:58:02.609Z,8756.00
2022-11-22T11:59:02.983Z,7584.00
2022-11-22T12:00:02.608Z,12068.00
2022-11-22T12:01:02.910Z,9212.00
2022-11-22T12:02:03.631Z,10896.00
2022-11-22T12:03:03.478Z,8480.00
2022-11-22T12:04:02.997Z,7496.00
2022-11-22T12:05:03.445Z,7400.00
2022-11-22T12:06:03.055Z,7612.00
2022-11-22T12:07:03.737Z,8088.00
2022-11-22T12:08:03.257Z,7176.00
2022-11-22T12:09:03.303Z,7640.00
2022-11-22T12:10:03.511Z,7476.00
2022-11-22T12:11:03.483Z,7564.00
2022-11-22T12:12:03.453Z,6956.00
2022-11-22T12:13:04.835Z,6968.00
2022-11-22T12:14:19.894Z,7520.00
2022-11-22T12:15:11.088Z,7776.00
2022-11-22T12:16:03.182Z,8556.00
2022-11-22T12:17:03.433Z,8204.00
2022-11-22T12:18:03.625Z,7352.00
2022-11-22T12:19:03.346Z,8216.00
2022-11-22T12:20:03.680Z,13072.00
2022-11-22T12:21:03.492Z,9552.00
2022-11-22T12:22:02.509Z,8764.00
2022-11-22T12:23:02.776Z,8132.00
2022-11-22T12:24:26.838Z,7332.00
2022-11-22T12:25:31.134Z,6672.00
2022-11-22T12:26:02.817Z,6648.00
2022-11-22T12:27:02.522Z,6444.00
2022-11-22T12:28:02.998Z,6228.00
2022-11-22T12:29:02.565Z,7328.00
2022-11-22T12:30:02.610Z,12680.00
2022-11-22T12:31:02.527Z,8568.00
2022-11-22T12:32:03.211Z,8412.00
2022-11-22T12:33:03.758Z,11196.00
2022-11-22T12:34:03.248Z,12444.00
2022-11-22T12:35:03.155Z,12696.00
2022-11-22T12:36:03.131Z,8380.00
2022-11-22T12:37:03.280Z,11680.00
2022-11-22T12:38:02.728Z,7044.00
2022-11-22T12:39:02.694Z,6860.00
2022-11-22T12:40:02.469Z,7252.00
2022-11-22T12:41:02.407Z,7264.00
2022-11-22T12:42:02.900Z,7408.00
2022-11-22T12:43:03.474Z,7424.00
2022-11-22T12:44:03.447Z,7480.00